Cedar, Kansas
Current Conditions -  °F | °C
As of 6:53 PM on Wednesday 26 Nov 2014 (Local Time) from KHLC Reporting Station
Overcast Overcast  
Wind Chill: 36°   Ceiling: 8000
Heat Index: 36°   Visibility: 10mi
Dew Point: 19°   Wind: 0mph
Humidity: 50%   Direction: NA
Pressure: 30.37"   Gusts: NA
Location:  39.66°N, 98.94°W
Report Text: KHLC 270053Z AUTO 00000KT 10SM OVC080 02/M07 A3037 RMK AO2 SLP298 T00221072
Loading
Personal Weather Stations






























Interactive Weather Map New forecast layout! Learn more

10-Day Weather Forecast

Advertisements
Track Severe Weather on mobile